createdAt,value
2019-06-26T00:00:26.683Z,20.40
2019-06-26T00:01:34.038Z,20.57
2019-06-26T00:02:42.426Z,20.63
2019-06-26T00:03:49.388Z,20.17
2019-06-26T00:04:57.149Z,19.63
2019-06-26T00:06:04.751Z,19.60
2019-06-26T00:07:12.697Z,20.40
2019-06-26T00:08:20.281Z,20.13
2019-06-26T00:09:28.547Z,21.37
2019-06-26T00:10:35.680Z,19.50
2019-06-26T00:11:43.201Z,19.90
2019-06-26T00:12:50.145Z,20.17
2019-06-26T00:13:58.250Z,21.10
2019-06-26T00:15:05.473Z,20.47
2019-06-26T00:16:13.444Z,21.73
2019-06-26T00:17:20.373Z,22.37
2019-06-26T00:18:28.925Z,19.47
2019-06-26T00:19:36.028Z,21.67
2019-06-26T00:20:43.937Z,22.00
2019-06-26T00:21:50.774Z,20.40
2019-06-26T00:22:59.251Z,21.40
2019-06-26T00:24:06.346Z,21.30
2019-06-26T00:25:13.981Z,20.07
2019-06-26T00:26:21.117Z,22.03
2019-06-26T00:27:29.743Z,20.67
2019-06-26T00:28:36.919Z,21.43
2019-06-26T00:29:44.546Z,19.27
2019-06-26T00:30:51.297Z,21.97
2019-06-26T00:31:58.989Z,21.07
2019-06-26T00:33:05.953Z,21.40
2019-06-26T00:34:13.521Z,21.27
2019-06-26T00:35:20.368Z,20.00
2019-06-26T00:36:28.947Z,21.00
2019-06-26T00:37:35.798Z,21.97
2019-06-26T00:38:44.202Z,21.97
2019-06-26T00:39:51.533Z,21.30
2019-06-26T00:41:00.073Z,21.67
2019-06-26T00:42:06.804Z,22.73
2019-06-26T00:43:14.669Z,22.53
2019-06-26T00:44:21.567Z,21.43
2019-06-26T00:45:30.039Z,22.37
2019-06-26T00:46:37.702Z,22.00
2019-06-26T00:47:45.643Z,22.50
2019-06-26T00:48:54.345Z,23.87
2019-06-26T00:50:01.967Z,22.93
2019-06-26T00:51:08.807Z,24.57
2019-06-26T00:52:16.331Z,24.30
2019-06-26T00:53:23.098Z,26.13
2019-06-26T00:54:30.861Z,24.50
2019-06-26T00:55:38.065Z,24.77
2019-06-26T00:56:45.825Z,25.07
2019-06-26T00:57:52.585Z,25.77
2019-06-26T00:59:02.302Z,25.33
2019-06-26T01:00:10.376Z,24.20
2019-06-26T01:01:18.304Z,25.83
2019-06-26T01:02:25.122Z,25.77
2019-06-26T01:03:33.215Z,24.83
2019-06-26T01:04:42.627Z,25.87
2019-06-26T01:05:50.532Z,25.20
2019-06-26T01:06:57.535Z,23.80
2019-06-26T01:08:05.231Z,24.57
2019-06-26T01:09:12.387Z,25.33
2019-06-26T01:10:21.990Z,25.43
2019-06-26T01:11:29.958Z,26.27
2019-06-26T01:12:38.356Z,24.90
2019-06-26T01:13:57.596Z,23.90
2019-06-26T01:14:55.112Z,24.03
2019-06-26T01:16:02.483Z,25.87
2019-06-26T01:17:10.025Z,27.20
2019-06-26T01:18:17.198Z,26.27
2019-06-26T01:19:25.169Z,26.10
2019-06-26T01:20:32.432Z,25.37
2019-06-26T01:21:40.073Z,27.20
2019-06-26T01:22:47.165Z,28.30
2019-06-26T01:23:55.842Z,27.00
2019-06-26T01:25:03.845Z,24.27
2019-06-26T01:26:11.850Z,27.13
2019-06-26T01:27:18.622Z,27.30
2019-06-26T01:28:27.527Z,27.80
2019-06-26T01:29:34.378Z,28.40
2019-06-26T01:30:42.135Z,28.70
2019-06-26T01:31:49.117Z,31.13
2019-06-26T01:32:57.117Z,30.70
2019-06-26T01:34:04.263Z,30.33
2019-06-26T01:35:12.408Z,28.60
2019-06-26T01:36:19.534Z,30.93
2019-06-26T01:37:27.647Z,28.63
2019-06-26T01:38:34.432Z,30.40
2019-06-26T01:39:41.990Z,31.17
2019-06-26T01:40:48.734Z,31.50
2019-06-26T01:41:56.742Z,32.20
2019-06-26T01:43:04.064Z,31.13
2019-06-26T01:44:15.389Z,29.50
2019-06-26T01:45:20.949Z,31.33
2019-06-26T01:46:29.857Z,31.07
2019-06-26T01:47:37.036Z,30.30
2019-06-26T01:48:45.034Z,31.87
2019-06-26T01:49:52.235Z,32.33
2019-06-26T01:51:01.069Z,30.50
2019-06-26T01:52:07.845Z,30.80
2019-06-26T01:53:15.389Z,31.03
2019-06-26T01:54:22.474Z,31.83
2019-06-26T01:55:30.579Z,31.03
2019-06-26T01:56:37.407Z,31.20
2019-06-26T01:57:45.292Z,29.80
2019-06-26T01:58:52.733Z,29.80
2019-06-26T02:00:00.802Z,29.30
2019-06-26T02:01:08.532Z,30.37
2019-06-26T02:02:16.182Z,29.63
2019-06-26T02:03:23.414Z,30.00
2019-06-26T02:04:33.380Z,30.90
2019-06-26T02:05:40.638Z,30.30
2019-06-26T02:06:48.704Z,31.17
2019-06-26T02:07:56.464Z,29.77
2019-06-26T02:09:04.100Z,29.10
2019-06-26T02:10:11.767Z,31.80
2019-06-26T02:11:19.383Z,31.60
2019-06-26T02:12:26.593Z,27.77
2019-06-26T02:13:34.324Z,31.13
2019-06-26T02:14:41.873Z,31.60
2019-06-26T02:15:49.467Z,32.60
2019-06-26T02:16:56.748Z,31.77
2019-06-26T02:18:04.974Z,31.40
2019-06-26T02:19:12.836Z,32.20
2019-06-26T02:20:20.754Z,33.50
2019-06-26T02:21:27.607Z,33.13
2019-06-26T02:22:36.343Z,33.30
2019-06-26T02:23:43.702Z,32.27
2019-06-26T02:24:51.238Z,30.70
2019-06-26T02:25:59.692Z,34.37
2019-06-26T02:27:08.324Z,35.40
2019-06-26T02:28:15.075Z,35.67
2019-06-26T02:29:23.017Z,34.47
2019-06-26T02:30:30.721Z,35.07
2019-06-26T02:31:38.274Z,34.50
2019-06-26T02:32:45.056Z,35.67
2019-06-26T02:33:53.013Z,35.50
2019-06-26T02:35:01.513Z,35.10
2019-06-26T02:36:09.078Z,36.73
2019-06-26T02:37:16.552Z,35.67
2019-06-26T02:38:24.810Z,34.87
2019-06-26T02:39:32.160Z,37.03
2019-06-26T02:40:39.824Z,35.00
2019-06-26T02:41:46.607Z,34.60
2019-06-26T02:42:54.443Z,35.83
2019-06-26T02:44:01.895Z,35.10
2019-06-26T02:45:10.719Z,38.23
2019-06-26T02:46:17.850Z,35.23
2019-06-26T02:47:25.719Z,38.30
2019-06-26T02:48:32.806Z,37.23
2019-06-26T02:49:40.951Z,36.80
2019-06-26T02:50:48.524Z,38.17
2019-06-26T02:51:56.323Z,37.07
2019-06-26T02:53:04.338Z,36.70
2019-06-26T02:54:11.977Z,38.43
2019-06-26T02:55:19.351Z,37.23
2019-06-26T02:56:27.188Z,39.43
2019-06-26T02:57:34.593Z,40.23
2019-06-26T02:58:42.484Z,39.60
2019-06-26T02:59:49.332Z,40.33
2019-06-26T03:00:56.992Z,39.10
2019-06-26T03:02:04.035Z,41.90
2019-06-26T03:03:11.788Z,40.07
2019-06-26T03:04:19.217Z,44.00
2019-06-26T03:05:27.222Z,40.83
2019-06-26T03:06:34.093Z,39.77
2019-06-26T03:07:42.397Z,40.87
2019-06-26T03:08:49.680Z,40.47
2019-06-26T03:09:57.943Z,39.90
2019-06-26T03:11:05.020Z,39.80
2019-06-26T03:12:12.537Z,40.47
2019-06-26T03:13:19.305Z,43.57
2019-06-26T03:14:27.533Z,39.60
2019-06-26T03:15:34.731Z,41.20
2019-06-26T03:16:42.261Z,40.00
2019-06-26T03:17:55.242Z,43.60
2019-06-26T03:18:58.883Z,40.20
2019-06-26T03:20:06.666Z,41.83
2019-06-26T03:21:14.912Z,45.13
2019-06-26T03:22:22.313Z,46.00
2019-06-26T03:23:30.516Z,45.10
2019-06-26T03:24:37.270Z,41.70
2019-06-26T03:25:44.806Z,44.17
2019-06-26T03:26:51.838Z,43.10
2019-06-26T03:28:00.152Z,47.77
2019-06-26T03:29:07.426Z,50.97
2019-06-26T03:30:15.533Z,48.27
2019-06-26T03:31:22.305Z,47.37
2019-06-26T03:32:29.959Z,45.87
2019-06-26T03:33:37.009Z,46.40
2019-06-26T03:34:44.687Z,47.07
2019-06-26T03:35:51.872Z,46.83
2019-06-26T03:36:59.852Z,46.93
2019-06-26T03:38:07.104Z,49.40
2019-06-26T03:39:14.664Z,46.30
2019-06-26T03:40:22.063Z,48.37
2019-06-26T03:41:30.221Z,46.80
2019-06-26T03:42:37.254Z,48.20
2019-06-26T03:43:45.128Z,48.20
2019-06-26T03:44:51.872Z,46.60
2019-06-26T03:45:59.820Z,44.60
2019-06-26T03:47:06.701Z,48.57
2019-06-26T03:48:14.618Z,45.97
2019-06-26T03:49:21.584Z,49.97
2019-06-26T03:50:29.684Z,48.00
2019-06-26T03:51:36.487Z,50.00
2019-06-26T03:52:44.013Z,50.73
2019-06-26T03:53:50.925Z,49.47
2019-06-26T03:54:59.224Z,48.80
2019-06-26T03:56:06.409Z,50.20
2019-06-26T03:57:14.311Z,51.00
2019-06-26T03:58:21.381Z,50.97
2019-06-26T03:59:29.325Z,50.73
2019-06-26T04:00:41.208Z,52.90
2019-06-26T04:01:49.119Z,50.90
2019-06-26T04:02:56.731Z,52.87
2019-06-26T04:04:04.688Z,52.10
2019-06-26T04:05:11.478Z,53.60
2019-06-26T04:06:19.014Z,53.83
2019-06-26T04:07:26.271Z,52.53
2019-06-26T04:08:33.933Z,53.00
2019-06-26T04:09:40.978Z,54.90
2019-06-26T04:10:48.522Z,54.37
2019-06-26T04:11:55.325Z,57.63
2019-06-26T04:13:04.223Z,56.53
2019-06-26T04:14:11.336Z,52.80
2019-06-26T04:15:19.275Z,53.00
2019-06-26T04:16:26.758Z,58.47
2019-06-26T04:17:34.381Z,55.33
2019-06-26T04:18:41.587Z,55.80
2019-06-26T04:19:49.157Z,55.67
2019-06-26T04:20:55.998Z,56.70
2019-06-26T04:22:03.621Z,58.93
2019-06-26T04:23:10.730Z,56.30
2019-06-26T04:24:18.257Z,57.03
2019-06-26T04:25:25.415Z,57.00
2019-06-26T04:26:33.861Z,56.77
2019-06-26T04:27:40.994Z,55.97
2019-06-26T04:28:48.542Z,54.87
2019-06-26T04:29:55.801Z,57.97
2019-06-26T04:31:03.500Z,56.77
2019-06-26T04:32:10.488Z,58.60
2019-06-26T04:33:18.412Z,58.87
2019-06-26T04:34:25.834Z,55.70
2019-06-26T04:35:33.884Z,57.30
2019-06-26T04:36:40.665Z,59.97
2019-06-26T04:37:48.495Z,58.10
2019-06-26T04:38:55.682Z,57.90
2019-06-26T04:40:03.355Z,57.80
2019-06-26T04:41:10.111Z,63.03
2019-06-26T04:42:17.663Z,61.07
2019-06-26T04:43:24.985Z,61.20
2019-06-26T04:44:32.910Z,61.30
2019-06-26T04:45:39.765Z,57.43
2019-06-26T04:46:47.320Z,59.83
2019-06-26T04:47:54.116Z,58.20
2019-06-26T04:49:02.006Z,60.30
2019-06-26T04:50:10.568Z,62.17
2019-06-26T04:51:18.626Z,60.77
2019-06-26T04:52:25.530Z,60.83
2019-06-26T04:53:33.658Z,65.17
2019-06-26T04:54:40.819Z,61.90
2019-06-26T04:55:48.403Z,62.53
2019-06-26T04:56:55.253Z,64.30
2019-06-26T04:58:02.859Z,62.40
2019-06-26T04:59:09.569Z,67.10
2019-06-26T05:00:21.789Z,63.47
2019-06-26T05:01:27.915Z,73.17
2019-06-26T05:02:35.979Z,73.50
2019-06-26T05:03:42.743Z,75.00
2019-06-26T05:04:50.273Z,76.33
2019-06-26T05:05:57.245Z,76.50
2019-06-26T05:07:05.461Z,79.47
2019-06-26T05:08:12.515Z,79.40
2019-06-26T05:09:20.143Z,80.27
2019-06-26T05:10:27.041Z,80.00
2019-06-26T05:11:34.913Z,76.90
2019-06-26T05:12:41.718Z,83.60
2019-06-26T05:13:49.633Z,79.97
2019-06-26T05:14:57.534Z,78.20
2019-06-26T05:16:14.888Z,84.37
2019-06-26T05:17:14.268Z,82.20
2019-06-26T05:18:21.875Z,82.73
2019-06-26T05:19:28.825Z,81.67
2019-06-26T05:20:37.019Z,86.47
2019-06-26T05:21:44.146Z,85.67
2019-06-26T05:22:51.754Z,85.57
2019-06-26T05:23:58.600Z,88.23
2019-06-26T05:25:06.974Z,84.27
2019-06-26T05:26:14.042Z,80.43
2019-06-26T05:27:21.638Z,85.80
2019-06-26T05:28:28.781Z,88.93
2019-06-26T05:29:36.637Z,91.57
2019-06-26T05:30:43.371Z,92.00
2019-06-26T05:31:50.982Z,94.17
2019-06-26T05:32:57.982Z,95.17
2019-06-26T05:34:05.833Z,97.47
2019-06-26T05:35:12.892Z,96.03
2019-06-26T05:36:20.444Z,96.47
2019-06-26T05:37:27.407Z,97.87
2019-06-26T05:38:35.059Z,98.40
2019-06-26T05:39:43.218Z,96.77
2019-06-26T05:40:51.811Z,100.33
2019-06-26T05:41:59.364Z,98.40
2019-06-26T05:43:06.977Z,98.43
2019-06-26T05:44:14.061Z,94.83
2019-06-26T05:45:23.390Z,99.50
2019-06-26T05:46:31.909Z,104.00
2019-06-26T05:47:40.055Z,102.40
2019-06-26T05:48:47.272Z,102.47
2019-06-26T05:49:55.452Z,101.03
2019-06-26T05:51:03.786Z,102.00
2019-06-26T05:52:11.691Z,102.40
2019-06-26T05:53:18.773Z,101.17
2019-06-26T05:54:26.783Z,97.30
2019-06-26T05:55:33.995Z,101.10
2019-06-26T05:56:45.162Z,104.30
2019-06-26T05:57:50.515Z,105.73
2019-06-26T05:58:58.620Z,109.43
2019-06-26T06:00:06.755Z,104.77
2019-06-26T06:01:14.335Z,103.23
2019-06-26T06:02:21.438Z,106.20
2019-06-26T06:03:29.555Z,100.00
2019-06-26T06:04:37.009Z,103.87
2019-06-26T06:05:44.536Z,104.93
2019-06-26T06:06:51.298Z,102.40
2019-06-26T06:07:59.243Z,105.77
2019-06-26T06:09:07.737Z,104.00
2019-06-26T06:10:15.956Z,102.60
2019-06-26T06:11:22.822Z,102.23
2019-06-26T06:12:30.642Z,101.87
2019-06-26T06:13:37.857Z,100.67
2019-06-26T06:14:45.478Z,101.37
2019-06-26T06:15:52.737Z,98.13
2019-06-26T06:17:01.342Z,91.43
2019-06-26T06:18:08.699Z,91.87
2019-06-26T06:19:16.592Z,94.97
2019-06-26T06:20:34.795Z,92.40
2019-06-26T06:21:42.969Z,90.43
2019-06-26T06:22:50.148Z,87.67
2019-06-26T06:23:58.219Z,85.67
2019-06-26T06:25:06.023Z,87.50
2019-06-26T06:26:13.644Z,86.50
2019-06-26T06:27:20.783Z,85.70
2019-06-26T06:28:28.847Z,87.27
2019-06-26T06:29:35.863Z,88.50
2019-06-26T06:30:43.423Z,85.10
2019-06-26T06:31:50.185Z,88.30
2019-06-26T06:32:58.249Z,84.33
2019-06-26T06:34:05.573Z,79.60
2019-06-26T06:35:13.975Z,81.37
2019-06-26T06:36:21.602Z,79.40
2019-06-26T06:37:29.674Z,85.03
2019-06-26T06:38:36.484Z,83.40
2019-06-26T06:39:44.051Z,82.73
2019-06-26T06:40:50.838Z,82.43
2019-06-26T06:41:58.784Z,82.53
2019-06-26T06:43:05.593Z,79.83
2019-06-26T06:44:13.115Z,78.77
2019-06-26T06:45:22.263Z,82.40
2019-06-26T06:46:29.945Z,81.50
2019-06-26T06:47:37.285Z,81.10
2019-06-26T06:48:45.195Z,82.37
2019-06-26T06:49:52.310Z,76.37
2019-06-26T06:51:00.211Z,74.93
2019-06-26T06:52:07.171Z,75.87
2019-06-26T06:53:15.106Z,78.03
2019-06-26T06:54:22.154Z,72.87
2019-06-26T06:55:31.645Z,73.10
2019-06-26T06:56:38.641Z,70.90
2019-06-26T06:57:46.187Z,70.80
2019-06-26T06:58:52.923Z,72.93
2019-06-26T07:00:00.963Z,69.07
2019-06-26T07:01:08.611Z,72.47
2019-06-26T07:02:16.530Z,72.80
2019-06-26T07:03:23.902Z,70.87
2019-06-26T07:04:32.101Z,73.33
2019-06-26T07:05:39.261Z,65.83
2019-06-26T07:06:47.108Z,70.73
2019-06-26T07:07:54.267Z,68.67
2019-06-26T07:09:01.978Z,64.67
2019-06-26T07:10:10.952Z,65.33
2019-06-26T07:11:18.523Z,63.90
2019-06-26T07:12:26.097Z,64.77
2019-06-26T07:13:34.321Z,65.23
2019-06-26T07:14:41.444Z,68.30
2019-06-26T07:15:48.978Z,61.77
2019-06-26T07:16:56.097Z,63.93
2019-06-26T07:18:04.105Z,62.77
2019-06-26T07:19:11.162Z,63.27
2019-06-26T07:20:19.201Z,63.80
2019-06-26T07:21:26.461Z,64.10
2019-06-26T07:22:34.594Z,60.23
2019-06-26T07:23:41.321Z,60.10
2019-06-26T07:24:49.008Z,64.20
2019-06-26T07:25:55.819Z,65.20
2019-06-26T07:27:03.577Z,60.53
2019-06-26T07:28:10.346Z,60.77
2019-06-26T07:29:17.929Z,60.77
2019-06-26T07:30:25.151Z,64.67
2019-06-26T07:31:33.070Z,61.97
2019-06-26T07:32:39.883Z,59.23
2019-06-26T07:33:47.461Z,59.03
2019-06-26T07:34:54.288Z,58.27
2019-06-26T07:36:02.616Z,58.77
2019-06-26T07:37:09.467Z,57.87
2019-06-26T07:38:17.085Z,59.00
2019-06-26T07:39:23.862Z,61.07
2019-06-26T07:40:31.601Z,60.27
2019-06-26T07:41:38.848Z,61.33
2019-06-26T07:42:46.968Z,59.50
2019-06-26T07:43:53.892Z,57.80
2019-06-26T07:45:02.303Z,56.77
2019-06-26T07:46:09.146Z,55.37
2019-06-26T07:47:23.156Z,59.03
2019-06-26T07:48:25.693Z,57.70
2019-06-26T07:49:33.747Z,57.13
2019-06-26T07:50:40.533Z,56.00
2019-06-26T07:51:48.221Z,55.27
2019-06-26T07:52:54.983Z,56.70
2019-06-26T07:54:03.314Z,59.50
2019-06-26T07:55:12.333Z,52.50
2019-06-26T07:56:20.108Z,53.30
2019-06-26T07:57:26.961Z,54.47
2019-06-26T07:58:35.436Z,52.30
2019-06-26T07:59:42.566Z,54.20
2019-06-26T08:00:50.119Z,53.80
2019-06-26T08:01:56.984Z,55.50
2019-06-26T08:03:04.914Z,57.50
2019-06-26T08:04:11.776Z,56.37
2019-06-26T08:05:20.370Z,52.23
2019-06-26T08:06:27.256Z,52.60
2019-06-26T08:07:35.702Z,51.97
2019-06-26T08:08:42.433Z,52.27
2019-06-26T08:09:50.037Z,49.47
2019-06-26T08:10:56.893Z,48.70
2019-06-26T08:12:04.584Z,48.30
2019-06-26T08:13:11.743Z,47.50
2019-06-26T08:14:19.904Z,47.03
2019-06-26T08:15:26.839Z,47.23
2019-06-26T08:16:34.639Z,43.93
2019-06-26T08:17:41.433Z,40.10
2019-06-26T08:18:49.051Z,40.97
2019-06-26T08:19:55.829Z,41.53
2019-06-26T08:21:12.173Z,38.63
2019-06-26T08:22:13.081Z,37.07
2019-06-26T08:23:20.967Z,35.47
2019-06-26T08:24:27.767Z,36.07
2019-06-26T08:25:35.456Z,33.77
2019-06-26T08:26:42.600Z,35.50
2019-06-26T08:27:50.576Z,30.37
2019-06-26T08:28:57.882Z,33.97
2019-06-26T08:30:06.860Z,31.53
2019-06-26T08:31:13.612Z,29.03
2019-06-26T08:32:21.775Z,29.27
2019-06-26T08:33:28.940Z,30.87
2019-06-26T08:34:36.988Z,30.47
2019-06-26T08:35:43.975Z,30.80
2019-06-26T08:36:51.925Z,28.87
2019-06-26T08:38:09.960Z,26.67
2019-06-26T08:39:09.935Z,27.97
2019-06-26T08:40:17.018Z,24.17
2019-06-26T08:41:24.888Z,24.27
2019-06-26T08:42:32.487Z,23.80
2019-06-26T08:43:40.014Z,23.13
2019-06-26T08:44:47.103Z,22.00
2019-06-26T08:45:55.026Z,24.40
2019-06-26T08:47:02.344Z,26.63
2019-06-26T08:48:22.916Z,23.20
2019-06-26T08:49:25.306Z,23.10
2019-06-26T08:50:27.899Z,21.73
2019-06-26T08:51:35.566Z,23.70
2019-06-26T08:52:43.398Z,21.97
2019-06-26T08:53:50.564Z,20.30
2019-06-26T08:54:59.074Z,20.83
2019-06-26T08:56:07.180Z,19.47
2019-06-26T08:57:15.458Z,21.00
2019-06-26T08:58:22.246Z,19.80
2019-06-26T08:59:30.343Z,18.27
2019-06-26T09:00:37.143Z,20.70
2019-06-26T09:01:44.687Z,20.93
2019-06-26T09:02:51.473Z,20.97
2019-06-26T09:03:59.127Z,21.50
2019-06-26T09:05:07.374Z,17.77
2019-06-26T09:06:14.916Z,16.53
2019-06-26T09:07:21.675Z,17.60
2019-06-26T09:08:29.568Z,18.03
2019-06-26T09:09:36.673Z,17.73
2019-06-26T09:10:45.416Z,17.37
2019-06-26T09:11:52.273Z,16.87
2019-06-26T09:13:00.119Z,18.40
2019-06-26T09:14:07.223Z,17.70
2019-06-26T09:16:32.279Z,21.67
2019-06-26T09:17:39.837Z,20.17
2019-06-26T09:18:46.638Z,17.90
2019-06-26T09:19:54.596Z,18.00
2019-06-26T09:21:01.894Z,16.20
2019-06-26T09:22:10.419Z,17.30
2019-06-26T09:23:17.488Z,17.00
2019-06-26T09:24:25.398Z,17.60
2019-06-26T09:25:32.147Z,15.17
2019-06-26T09:26:40.162Z,14.10
2019-06-26T09:27:47.096Z,13.77
2019-06-26T09:28:54.945Z,14.60
2019-06-26T09:30:01.769Z,14.57
2019-06-26T09:31:10.111Z,13.67
2019-06-26T09:32:17.014Z,13.67
2019-06-26T09:33:24.972Z,13.37
2019-06-26T09:34:32.154Z,14.20
2019-06-26T09:35:40.390Z,14.50
2019-06-26T09:36:47.584Z,12.17
2019-06-26T09:37:55.784Z,13.60
2019-06-26T09:39:02.584Z,13.00
2019-06-26T09:40:10.922Z,14.23
2019-06-26T09:41:18.140Z,13.67
2019-06-26T09:42:26.936Z,13.47
2019-06-26T09:43:33.723Z,13.37
2019-06-26T09:44:41.954Z,13.57
2019-06-26T09:45:49.215Z,11.97
2019-06-26T09:46:56.774Z,12.17
2019-06-26T09:48:03.609Z,13.93
2019-06-26T09:49:11.676Z,11.90
2019-06-26T09:50:18.939Z,11.87
2019-06-26T09:51:26.808Z,12.87
2019-06-26T09:52:33.965Z,11.53
2019-06-26T09:53:47.157Z,11.17
2019-06-26T09:54:50.161Z,11.53
2019-06-26T09:55:57.690Z,12.07
2019-06-26T09:57:04.880Z,10.63
2019-06-26T09:58:13.560Z,11.80
2019-06-26T09:59:20.656Z,11.30
2019-06-26T10:00:28.796Z,10.53
2019-06-26T10:01:35.880Z,10.10
2019-06-26T10:02:43.906Z,10.87
2019-06-26T10:03:51.142Z,11.00
2019-06-26T10:04:59.026Z,9.63
2019-06-26T10:06:05.773Z,10.10
2019-06-26T10:07:13.727Z,9.30
2019-06-26T10:08:20.481Z,8.93
2019-06-26T10:09:28.005Z,9.90
2019-06-26T10:10:34.813Z,9.73
2019-06-26T10:11:43.122Z,10.97
2019-06-26T10:12:49.938Z,10.17
2019-06-26T10:13:57.507Z,9.90
2019-06-26T10:15:04.872Z,10.83
2019-06-26T10:16:13.701Z,10.20
2019-06-26T10:17:22.654Z,10.77
2019-06-26T10:18:30.177Z,9.00
2019-06-26T10:19:37.380Z,9.80
2019-06-26T10:20:45.201Z,9.20
2019-06-26T10:21:51.927Z,9.83
2019-06-26T10:23:00.139Z,9.70
2019-06-26T10:24:07.144Z,8.70
2019-06-26T10:25:15.565Z,8.90
2019-06-26T10:26:22.640Z,9.10
2019-06-26T10:27:30.544Z,8.60
2019-06-26T10:28:37.411Z,9.07
2019-06-26T10:29:45.120Z,8.43
2019-06-26T10:30:51.882Z,9.93
2019-06-26T10:31:59.833Z,9.00
2019-06-26T10:33:06.654Z,8.77
2019-06-26T10:34:14.364Z,9.30
2019-06-26T10:35:21.533Z,9.20
2019-06-26T10:36:29.416Z,8.90
2019-06-26T10:37:36.489Z,8.63
2019-06-26T10:38:44.080Z,8.00
2019-06-26T10:39:51.882Z,9.20
2019-06-26T10:40:59.748Z,8.50
2019-06-26T10:42:07.182Z,9.13
2019-06-26T10:43:14.874Z,8.63
2019-06-26T10:44:21.648Z,8.23
2019-06-26T10:45:29.626Z,8.40
2019-06-26T10:46:36.383Z,8.30
2019-06-26T10:47:44.701Z,8.90
2019-06-26T10:48:51.454Z,9.80
2019-06-26T10:49:58.992Z,8.87
2019-06-26T10:51:06.486Z,7.90
2019-06-26T10:52:14.139Z,9.03
2019-06-26T10:53:20.914Z,9.67
2019-06-26T10:54:29.095Z,8.90
2019-06-26T10:55:35.898Z,9.00
2019-06-26T10:56:44.044Z,8.63
2019-06-26T10:57:50.775Z,8.13
2019-06-26T10:58:58.319Z,8.10
2019-06-26T11:00:06.173Z,7.80
2019-06-26T11:01:14.525Z,8.40
2019-06-26T11:02:21.635Z,8.90
2019-06-26T11:03:29.260Z,10.33
2019-06-26T11:04:36.007Z,7.70
2019-06-26T11:05:44.419Z,9.13
2019-06-26T11:06:51.165Z,7.80
2019-06-26T11:07:58.799Z,8.50
2019-06-26T11:09:07.812Z,7.57
2019-06-26T11:10:17.167Z,7.70
2019-06-26T11:11:23.957Z,8.20
2019-06-26T11:12:31.485Z,7.37
2019-06-26T11:13:38.701Z,7.50
2019-06-26T11:14:46.568Z,8.17
2019-06-26T11:15:53.308Z,7.97
2019-06-26T11:17:00.845Z,7.93
2019-06-26T11:18:08.072Z,8.97
2019-06-26T11:19:16.094Z,8.50
2019-06-26T11:20:22.936Z,8.10
2019-06-26T11:21:30.450Z,6.63
2019-06-26T11:22:37.275Z,8.07
2019-06-26T11:23:44.821Z,7.23
2019-06-26T11:24:51.560Z,8.20
2019-06-26T11:25:59.367Z,7.03
2019-06-26T11:27:06.140Z,6.83
2019-06-26T11:28:14.073Z,7.27
2019-06-26T11:29:20.883Z,7.97
2019-06-26T11:30:30.344Z,8.27
2019-06-26T11:31:37.872Z,8.07
2019-06-26T11:32:46.081Z,7.33
2019-06-26T11:33:52.895Z,7.93
2019-06-26T11:35:00.720Z,9.77
2019-06-26T11:36:07.486Z,8.70
2019-06-26T11:37:15.436Z,8.70
2019-06-26T11:38:22.547Z,9.63
2019-06-26T11:39:30.646Z,8.37
2019-06-26T11:40:37.819Z,8.83
2019-06-26T11:41:45.503Z,9.63
2019-06-26T11:42:52.602Z,10.33
2019-06-26T11:44:00.513Z,10.80
2019-06-26T11:45:08.998Z,10.17
2019-06-26T11:46:17.178Z,10.30
2019-06-26T11:47:24.337Z,9.40
2019-06-26T11:48:31.957Z,10.37
2019-06-26T11:49:39.064Z,9.90
2019-06-26T11:50:47.000Z,10.03
2019-06-26T11:51:53.867Z,10.70
2019-06-26T11:53:01.833Z,11.23
2019-06-26T11:54:09.790Z,11.50
2019-06-26T11:55:18.665Z,11.60
2019-06-26T11:56:25.952Z,11.97
2019-06-26T11:57:33.454Z,11.70
2019-06-26T11:58:40.670Z,12.60
2019-06-26T11:59:48.632Z,12.00
2019-06-26T12:00:55.936Z,10.23
2019-06-26T12:02:03.910Z,11.07
2019-06-26T12:03:13.242Z,11.53
2019-06-26T12:04:20.003Z,11.30
2019-06-26T12:05:27.118Z,10.83
2019-06-26T12:06:34.644Z,11.90
2019-06-26T12:07:42.001Z,11.33
2019-06-26T12:08:49.538Z,11.73
2019-06-26T12:09:56.789Z,10.30
2019-06-26T12:11:04.641Z,11.10
2019-06-26T12:12:12.351Z,10.73
2019-06-26T12:13:20.037Z,11.33
2019-06-26T12:14:27.109Z,10.60
2019-06-26T12:15:34.653Z,10.63
2019-06-26T12:16:42.312Z,12.07
2019-06-26T12:17:50.259Z,11.13
2019-06-26T12:18:57.074Z,10.43
2019-06-26T12:20:17.893Z,11.37
2019-06-26T12:21:13.633Z,11.57
2019-06-26T12:22:21.264Z,11.30
2019-06-26T12:23:28.018Z,11.27
2019-06-26T12:24:35.541Z,9.57
2019-06-26T12:25:43.170Z,10.70
2019-06-26T12:26:50.725Z,9.60
2019-06-26T12:27:57.471Z,10.60
2019-06-26T12:29:05.057Z,10.50
2019-06-26T12:30:14.017Z,9.20
2019-06-26T12:31:21.614Z,10.27
2019-06-26T12:32:28.693Z,9.30
2019-06-26T12:33:36.221Z,10.20
2019-06-26T12:34:45.193Z,11.93
2019-06-26T12:35:52.961Z,10.97
2019-06-26T12:37:00.218Z,10.20
2019-06-26T12:38:08.152Z,9.70
2019-06-26T12:39:15.071Z,9.50
2019-06-26T12:40:22.999Z,12.30
2019-06-26T12:41:29.729Z,11.10
2019-06-26T12:42:37.886Z,10.93
2019-06-26T12:43:45.168Z,10.87
2019-06-26T12:44:52.740Z,11.47
2019-06-26T12:45:59.534Z,9.77
2019-06-26T12:47:07.443Z,10.70
2019-06-26T12:48:16.230Z,11.87
2019-06-26T12:49:23.733Z,11.80
2019-06-26T12:50:35.941Z,11.17
2019-06-26T12:51:41.173Z,11.40
2019-06-26T12:52:48.032Z,11.90
2019-06-26T12:53:58.432Z,11.87
2019-06-26T12:55:04.984Z,12.10
2019-06-26T12:56:13.623Z,12.90
2019-06-26T12:57:20.952Z,12.73
2019-06-26T12:58:28.529Z,11.57
2019-06-26T12:59:35.291Z,10.90
2019-06-26T13:00:43.636Z,12.00
2019-06-26T13:01:50.790Z,10.80
2019-06-26T13:02:58.898Z,11.37
2019-06-26T13:04:05.991Z,11.63
2019-06-26T13:05:14.920Z,10.50
2019-06-26T13:06:21.730Z,10.87
2019-06-26T13:07:29.321Z,12.73
2019-06-26T13:08:36.058Z,11.90
2019-06-26T13:09:44.341Z,11.60
2019-06-26T13:10:51.223Z,11.90
2019-06-26T13:11:58.892Z,10.70
2019-06-26T13:13:05.644Z,11.63
2019-06-26T13:14:13.584Z,12.33
2019-06-26T13:15:21.082Z,11.33
2019-06-26T13:16:28.609Z,12.30
2019-06-26T13:17:35.379Z,10.60
2019-06-26T13:18:43.404Z,13.00
2019-06-26T13:19:50.638Z,14.00
2019-06-26T13:20:58.185Z,13.57
2019-06-26T13:22:04.977Z,13.07
2019-06-26T13:23:14.889Z,13.00
2019-06-26T13:24:21.847Z,13.80
2019-06-26T13:25:29.457Z,12.73
2019-06-26T13:26:36.214Z,12.43
2019-06-26T13:27:44.014Z,11.40
2019-06-26T13:28:50.996Z,10.97
2019-06-26T13:29:58.816Z,13.00
2019-06-26T13:31:05.936Z,12.03
2019-06-26T13:32:16.632Z,10.93
2019-06-26T13:33:22.910Z,11.70
2019-06-26T13:34:30.453Z,12.47
2019-06-26T13:35:37.806Z,11.50
2019-06-26T13:36:45.913Z,13.03
2019-06-26T13:37:52.665Z,11.47
2019-06-26T13:39:00.245Z,11.47
2019-06-26T13:40:07.631Z,9.77
2019-06-26T13:41:15.666Z,10.23
2019-06-26T13:42:22.499Z,9.47
2019-06-26T13:43:30.423Z,9.50
2019-06-26T13:44:37.458Z,11.97
2019-06-26T13:45:45.208Z,11.33
2019-06-26T13:46:51.939Z,10.60
2019-06-26T13:48:00.238Z,10.70
2019-06-26T13:49:07.034Z,10.30
2019-06-26T13:50:15.277Z,11.37
2019-06-26T13:51:22.315Z,11.10
2019-06-26T13:52:30.282Z,10.43
2019-06-26T13:53:37.055Z,11.50
2019-06-26T13:54:44.769Z,11.83
2019-06-26T13:55:51.667Z,10.57
2019-06-26T13:56:59.258Z,9.17
2019-06-26T13:58:06.284Z,11.87
2019-06-26T13:59:14.391Z,9.93
2019-06-26T14:00:22.528Z,10.20
2019-06-26T14:01:30.406Z,10.73
2019-06-26T14:02:39.796Z,9.87
2019-06-26T14:03:47.427Z,9.13
2019-06-26T14:04:54.527Z,8.80
2019-06-26T14:06:02.419Z,10.13
2019-06-26T14:07:09.943Z,8.27
2019-06-26T14:08:18.225Z,8.63
2019-06-26T14:09:24.930Z,6.83
2019-06-26T14:10:32.506Z,7.13
2019-06-26T14:11:39.925Z,7.63
2019-06-26T14:12:47.577Z,7.10
2019-06-26T14:13:54.729Z,7.67
2019-06-26T14:15:02.329Z,6.90
2019-06-26T14:16:09.407Z,7.27
2019-06-26T14:17:17.308Z,5.97
2019-06-26T14:18:24.106Z,6.83
2019-06-26T14:19:31.971Z,6.57
2019-06-26T14:20:39.291Z,6.67
2019-06-26T14:21:47.247Z,6.07
2019-06-26T14:22:53.994Z,6.17
2019-06-26T14:24:02.777Z,6.60
2019-06-26T14:25:10.674Z,6.40
2019-06-26T14:26:19.071Z,5.90
2019-06-26T14:27:25.803Z,5.80
2019-06-26T14:28:33.315Z,5.83
2019-06-26T14:29:40.608Z,6.57
2019-06-26T14:30:48.604Z,5.60
2019-06-26T14:31:55.372Z,5.63
2019-06-26T14:33:03.255Z,4.50
2019-06-26T14:34:10.139Z,4.83
2019-06-26T14:35:17.981Z,4.40